Time;durP1;ratioP1;P1;durP2;ratioP2;P2;SDS_P1;SDS_P2;PMS_P1;PMS_P2;Temp;Humidity;BMP_temperature;BMP_pressure;BME280_temperature;BME280_humidity;BME280_pressure;Samples;Min_cycle;Max_cycle;Signal;HPM_P1;HPM_P2
2021/10/02 00:01:42;;;;;;;31.10;13.00;;;;;;;8.31;75.16;100591.66;112516;1208;24570;-78
2021/10/02 00:31:47;;;;;;;32.30;14.70;;;;;;;8.30;76.50;100546.11;113551;1198;22479;-79
2021/10/02 00:34:41;;;;;;;32.10;15.60;;;;;;;8.30;76.65;100541.09;113752;1198;22655;-78
2021/10/02 00:45:27;;;;;;;30.80;14.30;;;;;;;8.29;76.84;100534.11;113882;1199;26075;-80
2021/10/02 00:47:56;;;;;;;31.20;14.30;;;;;;;8.29;76.78;100534.66;113552;1193;24185;-77
2021/10/02 00:50:25;;;;;;;32.00;13.00;;;;;;;8.30;76.74;100534.33;113696;1198;24185;-78
2021/10/02 00:52:52;;;;;;;30.20;14.20;;;;;;;8.30;76.84;100532.98;113742;1198;23809;-78
2021/10/02 00:55:21;;;;;;;32.00;14.60;;;;;;;8.30;76.83;100529.02;113560;1199;22450;-78
2021/10/02 00:57:50;;;;;;;31.10;15.30;;;;;;;8.30;76.88;100531.48;113624;1199;22423;-79
2021/10/02 01:00:20;;;;;;;27.40;13.00;;;;;;;8.29;76.85;100526.17;113778;1198;22553;-78
2021/10/02 01:02:53;;;;;;;30.90;14.20;;;;;;;8.29;76.83;100520.52;113709;1198;22879;-78
2021/10/02 01:05:47;;;;;;;29.60;14.60;;;;;;;8.28;77.16;100522.96;113618;1198;22446;-78
2021/10/02 01:08:25;;;;;;;30.70;14.60;;;;;;;8.25;77.10;100521.23;113580;1198;22885;-79
2021/10/02 01:11:06;;;;;;;33.40;14.70;;;;;;;8.24;77.09;100524.77;113710;1198;25048;-78
2021/10/02 01:13:42;;;;;;;31.40;14.20;;;;;;;8.23;77.15;100521.86;113746;1198;22542;-78
2021/10/02 01:16:14;;;;;;;29.30;12.90;;;;;;;8.22;77.24;100520.77;113753;1198;25133;-78
2021/10/02 01:18:47;;;;;;;31.10;14.10;;;;;;;8.21;77.20;100520.01;113767;1198;22759;-78
2021/10/02 01:21:39;;;;;;;32.70;13.60;;;;;;;8.21;77.45;100514.63;113763;1199;22432;-78
2021/10/02 01:24:27;;;;;;;27.10;11.70;;;;;;;8.21;77.42;100508.75;113513;1199;22479;-80
2021/10/02 01:27:24;;;;;;;31.00;13.70;;;;;;;8.21;77.44;100507.30;113812;1198;25214;-78
2021/10/02 01:29:53;;;;;;;28.70;13.70;;;;;;;8.21;77.48;100505.55;113685;1198;23226;-78
2021/10/02 01:32:29;;;;;;;25.70;11.30;;;;;;;8.20;77.61;100508.38;113663;1198;22509;-78
2021/10/02 01:35:09;;;;;;;25.70;11.80;;;;;;;8.18;77.70;100505.27;113582;1198;22557;-78
2021/10/02 01:37:59;;;;;;;29.50;13.60;;;;;;;8.18;77.74;100504.57;113704;1198;22555;-78
2021/10/02 01:48:50;;;;;;;29.60;12.40;;;;;;;8.12;77.60;100498.84;113664;1198;24158;-78
2021/10/02 01:51:19;;;;;;;28.00;12.40;;;;;;;8.10;77.60;100495.63;113666;1198;22414;-82
2021/10/02 01:53:49;;;;;;;30.30;12.00;;;;;;;8.09;77.66;100493.37;113879;1192;22563;-78
2021/10/02 01:56:22;;;;;;;25.70;11.30;;;;;;;8.08;77.81;100490.24;114025;1198;24202;-78
2021/10/02 01:58:53;;;;;;;30.10;12.20;;;;;;;8.06;77.85;100486.35;113761;1199;22441;-79
2021/10/02 02:01:23;;;;;;;27.70;12.40;;;;;;;8.04;77.96;100482.13;113559;1194;23260;-78
2021/10/02 02:03:56;;;;;;;24.60;11.70;;;;;;;8.02;78.17;100479.27;113622;1199;22433;-78
2021/10/02 02:06:26;;;;;;;30.00;13.10;;;;;;;8.01;78.28;100474.63;113585;1199;22489;-80
2021/10/02 02:08:57;;;;;;;29.80;13.00;;;;;;;8.00;78.42;100477.55;113741;1198;23299;-78
2021/10/02 02:11:25;;;;;;;;;;;;;;;7.99;78.56;100475.89;113782;1198;25074;-78
2021/10/02 02:13:54;;;;;;;25.30;11.10;;;;;;;7.98;78.61;100474.98;113791;1193;22461;-78
2021/10/02 02:16:22;;;;;;;26.60;12.30;;;;;;;7.97;78.63;100474.86;113621;1199;24783;-77
2021/10/02 02:18:52;;;;;;;27.30;12.10;;;;;;;7.97;78.76;100467.16;113659;1198;22805;-79
2021/10/02 02:21:21;;;;;;;27.10;12.70;;;;;;;7.96;78.73;100463.88;113764;1198;22437;-78
2021/10/02 02:23:49;;;;;;;25.50;12.30;;;;;;;7.95;78.85;100461.45;113530;1199;23826;-78
2021/10/02 02:26:19;;;;;;;25.80;12.10;;;;;;;7.93;79.00;100461.69;113515;1198;22439;-77
2021/10/02 02:28:50;;;;;;;26.70;11.50;;;;;;;7.93;79.06;100458.42;113548;1199;22564;-78
2021/10/02 02:31:18;;;;;;;23.70;11.40;;;;;;;7.94;78.95;100452.98;113707;1198;22419;-78
2021/10/02 02:33:47;;;;;;;28.70;12.00;;;;;;;7.94;79.13;100450.92;113727;1199;24835;-78
2021/10/02 02:36:15;;;;;;;26.40;12.20;;;;;;;7.93;78.94;100445.93;113651;1193;22446;-78
2021/10/02 02:38:43;;;;;;;25.20;10.90;;;;;;;7.93;79.11;100446.17;113678;1199;23262;-80
2021/10/02 02:41:12;;;;;;;27.70;12.10;;;;;;;7.93;79.17;100447.94;113686;1199;24088;-77
2021/10/02 02:43:39;;;;;;;27.90;12.10;;;;;;;7.93;79.02;100449.77;113806;1199;22446;-78
2021/10/02 02:46:11;;;;;;;24.90;11.40;;;;;;;7.92;79.12;100448.22;113646;1199;22864;-79
2021/10/02 02:48:46;;;;;;;26.30;10.90;;;;;;;7.91;79.10;100453.25;113700;1198;22508;-78
2021/10/02 02:51:20;;;;;;;25.60;10.80;;;;;;;7.91;79.11;100451.83;113687;1198;22463;-78
2021/10/02 02:53:59;;;;;;;27.40;11.70;;;;;;;7.90;79.09;100448.60;113818;1198;25938;-79
2021/10/02 02:56:35;;;;;;;27.40;12.80;;;;;;;7.89;79.07;100456.96;113521;1199;25258;-78
2021/10/02 02:59:09;;;;;;;28.10;11.10;;;;;;;7.88;78.99;100452.73;113649;1198;25101;-79
2021/10/02 03:01:42;;;;;;;26.60;11.30;;;;;;;7.85;78.94;100454.36;113782;1198;24699;-79
2021/10/02 03:04:15;;;;;;;26.40;11.10;;;;;;;7.82;78.90;100458.39;113875;1184;22439;-79
2021/10/02 03:06:47;;;;;;;24.10;11.20;;;;;;;7.79;78.85;100452.05;113740;1198;24064;-78
2021/10/02 03:09:16;;;;;;;30.20;12.00;;;;;;;7.78;78.84;100451.23;113791;1193;23069;-78
2021/10/02 03:11:47;;;;;;;23.10;10.20;;;;;;;7.76;78.83;100446.13;113750;1198;22432;-78
2021/10/02 03:14:18;;;;;;;26.40;11.50;;;;;;;7.75;79.01;100444.13;113819;1198;24087;-78
2021/10/02 03:16:47;;;;;;;22.70;10.00;;;;;;;7.73;79.01;100445.92;113710;1199;25182;-78
2021/10/02 03:19:17;;;;;;;24.50;10.70;;;;;;;7.73;79.10;100447.21;113684;1199;22494;-79
2021/10/02 03:21:45;;;;;;;26.30;11.10;;;;;;;7.71;79.20;100446.56;113759;1198;24187;-79
2021/10/02 03:24:15;;;;;;;26.10;11.80;;;;;;;7.71;79.35;100447.83;113862;1198;24075;-79
2021/10/02 03:26:44;;;;;;;23.40;10.60;;;;;;;7.71;79.43;100446.56;113850;1198;22743;-79
2021/10/02 03:29:14;;;;;;;25.80;11.20;;;;;;;7.71;79.39;100446.87;113844;1199;24311;-78
2021/10/02 03:31:43;;;;;;;23.60;11.20;;;;;;;7.73;79.49;100446.50;113772;1199;22462;-79
2021/10/02 03:34:13;;;;;;;24.80;11.00;;;;;;;7.72;79.47;100444.45;113647;1199;23388;-78
2021/10/02 03:36:42;;;;;;;25.20;11.80;;;;;;;7.72;79.41;100443.99;113891;1198;22506;-78
2021/10/02 03:39:10;;;;;;;25.50;10.40;;;;;;;7.71;79.48;100446.65;113654;1193;26505;-78
2021/10/02 03:41:38;;;;;;;24.00;10.80;;;;;;;7.69;79.53;100442.20;113798;1198;25258;-78
2021/10/02 03:44:07;;;;;;;24.70;10.90;;;;;;;7.68;79.46;100442.31;113638;1194;22465;-78
2021/10/02 03:46:35;;;;;;;22.00;9.90;;;;;;;7.67;79.49;100438.88;113651;1198;22458;-78
2021/10/02 03:49:03;;;;;;;24.50;9.90;;;;;;;7.65;79.46;100438.84;113718;1199;24041;-81
2021/10/02 03:51:31;;;;;;;24.20;10.10;;;;;;;7.64;79.46;100437.06;113505;1184;24053;-77
2021/10/02 03:53:58;;;;;;;23.70;10.10;;;;;;;7.61;79.63;100438.38;113555;1199;22436;-78
2021/10/02 03:56:30;;;;;;;23.50;9.40;;;;;;;7.59;79.60;100438.06;113720;1198;24121;-78
2021/10/02 03:58:57;;;;;;;23.00;10.30;;;;;;;7.58;79.71;100438.02;113747;1198;22457;-78
2021/10/02 04:01:26;;;;;;;24.30;10.90;;;;;;;7.56;79.60;100439.98;113783;1198;25179;-78
2021/10/02 04:03:54;;;;;;;27.10;11.90;;;;;;;7.53;79.78;100440.11;113751;1199;22424;-78
2021/10/02 04:06:22;;;;;;;25.00;10.90;;;;;;;7.50;79.92;100442.05;113709;1196;22458;-78
2021/10/02 04:08:50;;;;;;;24.10;10.30;;;;;;;7.48;79.91;100441.50;113598;1198;25049;-78
2021/10/02 04:11:18;;;;;;;24.30;10.00;;;;;;;7.45;79.76;100443.25;113761;1199;25108;-78
2021/10/02 04:13:46;;;;;;;24.10;9.60;;;;;;;7.44;79.76;100441.88;113658;1198;22458;-81
2021/10/02 04:16:14;;;;;;;23.20;8.80;;;;;;;7.42;79.61;100444.41;113678;1198;27427;-79
2021/10/02 04:18:42;;;;;;;21.90;9.80;;;;;;;7.41;79.65;100446.13;113627;1198;25385;-78
2021/10/02 04:21:11;;;;;;;25.30;9.70;;;;;;;7.39;79.68;100440.79;113577;1198;22442;-78
2021/10/02 04:23:42;;;;;;;23.20;9.00;;;;;;;7.36;79.90;100442.23;113734;1198;22544;-79
2021/10/02 04:26:10;;;;;;;22.40;10.00;;;;;;;7.35;79.96;100443.38;113582;1198;23823;-79
2021/10/02 04:28:38;;;;;;;26.20;11.10;;;;;;;7.34;80.06;100443.63;113709;1198;25112;-78
2021/10/02 04:31:09;;;;;;;24.10;11.00;;;;;;;7.34;80.09;100440.05;113572;1199;23135;-78
2021/10/02 04:33:36;;;;;;;;;;;;;;;7.34;80.18;100444.37;113628;1199;25404;-78
2021/10/02 04:36:05;;;;;;;23.90;10.40;;;;;;;7.33;80.26;100441.78;113752;1199;22446;-77
2021/10/02 04:38:35;;;;;;;24.70;9.60;;;;;;;7.34;80.39;100441.50;113737;1193;22441;-78
2021/10/02 04:41:04;;;;;;;28.00;11.30;;;;;;;7.35;80.32;100445.43;113726;1198;22454;-78
2021/10/02 04:43:34;;;;;;;24.60;11.30;;;;;;;7.37;80.47;100446.59;113699;1198;22453;-80
2021/10/02 04:46:03;;;;;;;26.50;10.90;;;;;;;7.37;80.55;100446.03;113730;1198;24156;-79
2021/10/02 04:48:33;;;;;;;30.80;11.80;;;;;;;7.37;80.61;100443.41;113654;1198;23772;-79
2021/10/02 04:51:01;;;;;;;24.00;10.50;;;;;;;7.35;80.90;100448.86;113765;1198;22441;-79
2021/10/02 04:53:29;;;;;;;21.70;10.20;;;;;;;7.33;80.77;100445.75;113746;1198;24084;-79
2021/10/02 04:55:59;;;;;;;26.20;11.10;;;;;;;7.32;80.82;100446.79;113735;1198;25064;-79
2021/10/02 04:58:28;;;;;;;25.70;12.00;;;;;;;7.32;80.76;100443.55;113707;1198;24073;-78
2021/10/02 05:00:58;;;;;;;26.80;10.70;;;;;;;7.31;80.57;100444.54;113674;1196;22472;-79
2021/10/02 05:03:26;;;;;;;28.60;11.90;;;;;;;7.30;80.51;100445.36;113853;1199;22440;-80
2021/10/02 05:05:54;;;;;;;28.50;10.80;;;;;;;7.30;80.62;100446.20;113759;1198;22459;-79
2021/10/02 05:08:23;;;;;;;30.40;13.20;;;;;;;7.28;80.69;100448.77;113655;1198;23160;-79
2021/10/02 05:10:51;;;;;;;29.70;14.30;;;;;;;7.27;80.83;100445.10;113756;1198;24276;-79
2021/10/02 05:13:19;;;;;;;30.30;12.30;;;;;;;7.27;80.78;100447.23;113702;1199;22837;-81
2021/10/02 05:15:47;;;;;;;25.70;11.70;;;;;;;7.27;80.81;100449.47;113622;1199;22417;-78
2021/10/02 05:18:15;;;;;;;27.60;12.20;;;;;;;7.27;80.78;100452.07;113867;1198;24626;-79
2021/10/02 05:20:43;;;;;;;26.50;13.20;;;;;;;7.27;80.82;100451.77;113601;1198;22448;-78
2021/10/02 05:23:12;;;;;;;26.60;11.80;;;;;;;7.27;80.71;100451.05;113864;1198;24110;-78
2021/10/02 05:25:41;;;;;;;27.50;13.70;;;;;;;7.27;81.02;100451.52;114064;1199;22444;-79
2021/10/02 05:28:08;;;;;;;28.10;12.50;;;;;;;7.28;80.88;100457.41;113949;1199;22446;-78
2021/10/02 05:30:37;;;;;;;28.20;11.80;;;;;;;7.30;80.90;100455.85;113901;1199;22574;-80
2021/10/02 05:33:06;;;;;;;28.10;13.20;;;;;;;7.31;80.97;100455.98;114112;1198;22492;-80
2021/10/02 05:35:36;;;;;;;25.60;12.10;;;;;;;7.31;81.01;100454.56;115112;1199;24054;-79
2021/10/02 05:38:05;;;;;;;27.80;12.20;;;;;;;7.32;81.15;100452.44;113940;1199;23620;-78
2021/10/02 05:40:34;;;;;;;29.10;12.40;;;;;;;7.34;81.33;100453.23;114164;1193;22721;-79
2021/10/02 05:43:07;;;;;;;25.50;11.70;;;;;;;7.38;81.34;100456.67;114109;1192;22553;-79
2021/10/02 05:45:38;;;;;;;28.30;12.50;;;;;;;7.41;81.67;100455.23;114204;1194;25324;-79
2021/10/02 05:48:08;;;;;;;28.70;12.40;;;;;;;7.44;81.91;100454.34;114211;1198;22484;-80
2021/10/02 05:50:39;;;;;;;27.90;11.80;;;;;;;7.46;82.14;100458.69;114050;1199;25336;-79
2021/10/02 05:53:07;;;;;;;26.50;12.10;;;;;;;7.49;82.45;100456.36;114173;1199;25139;-79
2021/10/02 05:55:36;;;;;;;30.70;12.00;;;;;;;7.52;82.44;100454.83;114274;1199;23303;-78
2021/10/02 05:58:06;;;;;;;30.00;12.80;;;;;;;7.56;82.69;100453.27;114041;1199;25215;-79
2021/10/02 06:00:34;;;;;;;28.70;14.30;;;;;;;7.60;82.72;100455.94;114096;1198;24214;-79
2021/10/02 06:03:03;;;;;;;31.60;14.50;;;;;;;7.65;82.86;100465.52;117201;1198;22187;-79
2021/10/02 06:05:31;;;;;;;33.90;14.00;;;;;;;7.70;82.80;100470.42;116474;1198;23863;-80
2021/10/02 06:07:59;;;;;;;25.70;12.80;;;;;;;7.75;83.00;100467.85;114382;1198;24169;-78
2021/10/02 06:10:27;;;;;;;29.00;13.30;;;;;;;7.80;83.30;100464.30;114254;1198;22440;-77
2021/10/02 06:12:55;;;;;;;31.40;14.00;;;;;;;7.86;83.36;100470.52;114267;1198;22451;-79
2021/10/02 06:15:25;;;;;;;30.80;14.00;;;;;;;7.92;83.33;100469.44;114379;1199;25189;-80
2021/10/02 06:17:54;;;;;;;27.60;14.80;;;;;;;7.97;83.55;100472.48;114373;1198;22560;-78
2021/10/02 06:20:24;;;;;;;27.10;12.60;;;;;;;8.03;83.73;100471.47;114216;1198;22582;-79
2021/10/02 06:22:53;;;;;;;33.50;16.70;;;;;;;8.08;83.56;100469.04;114268;1198;22413;-79
2021/10/02 06:25:21;;;;;;;35.20;16.30;;;;;;;8.13;83.75;100468.98;114125;1193;22563;-79
2021/10/02 06:27:49;;;;;;;34.50;16.90;;;;;;;8.21;83.95;100467.59;114294;1198;22446;-79
2021/10/02 06:30:17;;;;;;;38.30;16.90;;;;;;;8.27;83.85;100466.91;114183;1198;25130;-79
2021/10/02 06:32:45;;;;;;;33.60;16.00;;;;;;;8.33;84.27;100463.22;114062;1199;23606;-79
2021/10/02 06:35:13;;;;;;;31.60;15.50;;;;;;;8.40;84.21;100463.19;114114;1199;22849;-79
2021/10/02 06:37:44;;;;;;;31.90;15.70;;;;;;;8.46;84.23;100460.53;114273;1200;22433;-79
2021/10/02 06:40:13;;;;;;;33.00;16.50;;;;;;;8.55;84.41;100462.58;114035;1199;25732;-78
2021/10/02 06:42:42;;;;;;;32.80;16.90;;;;;;;8.63;84.51;100463.21;114276;1200;24024;-79
2021/10/02 06:45:11;;;;;;;37.90;16.70;;;;;;;8.70;84.81;100461.21;114181;1199;22449;-79
2021/10/02 06:47:40;;;;;;;36.00;16.60;;;;;;;8.78;84.97;100456.39;114199;1198;22433;-79
2021/10/02 06:50:09;;;;;;;32.40;16.60;;;;;;;8.90;85.51;100455.44;113926;1199;25090;-79
2021/10/02 06:52:37;;;;;;;36.20;18.10;;;;;;;9.01;85.55;100454.98;113973;1199;25139;-79
2021/10/02 06:55:08;;;;;;;36.70;16.50;;;;;;;9.11;85.70;100453.60;114111;1200;22453;-79
2021/10/02 06:57:36;;;;;;;36.30;18.10;;;;;;;9.22;85.92;100455.58;114125;1198;25240;-78
2021/10/02 07:00:07;;;;;;;37.90;18.90;;;;;;;9.35;86.13;100458.05;114003;1193;25793;-78
2021/10/02 07:02:39;;;;;;;;;;;;;;;9.47;86.01;100455.01;114204;1196;22470;-79
2021/10/02 07:05:09;;;;;;;34.90;17.40;;;;;;;9.59;86.15;100450.02;114483;1198;22467;-79
2021/10/02 07:07:40;;;;;;;32.80;17.70;;;;;;;9.71;86.40;100448.55;114086;1192;22457;-77
2021/10/02 07:10:12;;;;;;;36.40;17.70;;;;;;;9.89;86.60;100451.05;114223;1199;22694;-78
2021/10/02 07:12:41;;;;;;;34.40;17.80;;;;;;;10.03;86.54;100449.16;114086;1199;22578;-79
2021/10/02 07:15:11;;;;;;;34.70;17.50;;;;;;;10.17;86.51;100459.53;114025;1199;23211;-78
2021/10/02 07:17:39;;;;;;;39.20;17.20;;;;;;;10.30;86.40;100462.29;114198;1199;22430;-77
2021/10/02 07:20:10;;;;;;;36.00;17.70;;;;;;;10.46;86.56;100463.20;113877;1198;23306;-79
2021/10/02 07:22:38;;;;;;;35.30;17.50;;;;;;;10.62;86.43;100465.76;114260;1199;24044;-79
2021/10/02 07:25:13;;;;;;;32.60;17.20;;;;;;;10.75;86.38;100460.61;114166;1199;27133;-77
2021/10/02 07:27:44;;;;;;;31.20;16.10;;;;;;;10.86;86.17;100456.18;115096;1193;22472;-78
2021/10/02 07:30:13;;;;;;;35.10;17.40;;;;;;;10.97;86.13;100455.14;114470;1193;24026;-77
2021/10/02 07:32:42;;;;;;;32.70;16.90;;;;;;;11.10;86.33;100452.16;114173;1198;25354;-77
2021/10/02 07:35:13;;;;;;;31.90;17.10;;;;;;;11.29;86.56;100458.08;113919;1199;22472;-78
2021/10/02 07:37:41;;;;;;;35.00;18.70;;;;;;;11.50;86.28;100462.13;113844;1199;25182;-77
2021/10/02 07:40:13;;;;;;;33.90;18.30;;;;;;;11.70;86.37;100466.11;113925;1184;22470;-77
2021/10/02 07:43:00;;;;;;;;;;;;;;;;;;;;;
2021/10/02 07:45:31;;;;;;;37.50;19.40;;;;;;;12.07;85.79;100466.73;114221;1199;22423;-80
2021/10/02 07:48:02;;;;;;;35.90;19.30;;;;;;;12.21;85.36;100459.59;114134;1199;25289;-81
2021/10/02 07:50:31;;;;;;;39.10;20.40;;;;;;;12.37;85.17;100455.80;114760;1199;22437;-81
2021/10/02 07:53:00;;;;;;;40.40;20.30;;;;;;;12.52;85.14;100454.75;114769;1198;22453;-81
2021/10/02 07:55:29;;;;;;;35.00;17.70;;;;;;;12.66;84.74;100452.05;114800;1199;23339;-82
2021/10/02 07:57:57;;;;;;;32.10;17.00;;;;;;;12.81;84.44;100449.09;114514;1199;22455;-82
2021/10/02 08:00:26;;;;;;;33.30;16.20;;;;;;;12.96;84.30;100448.42;115137;1199;24548;-82
2021/10/02 08:02:56;;;;;;;33.50;17.70;;;;;;;13.13;84.11;100448.71;115225;1194;22449;-80
2021/10/02 08:05:25;;;;;;;29.50;15.20;;;;;;;13.34;83.64;100441.30;115494;1198;22483;-81
2021/10/02 08:07:54;;;;;;;29.80;14.80;;;;;;;13.50;83.04;100437.91;115189;1199;23178;-80
2021/10/02 08:10:28;;;;;;;27.90;13.10;;;;;;;13.62;82.56;100430.55;115049;1199;22505;-80
2021/10/02 08:12:59;;;;;;;23.70;12.10;;;;;;;13.75;82.42;100436.89;114627;1198;22509;-80
2021/10/02 08:15:27;;;;;;;29.00;11.70;;;;;;;13.90;81.76;100432.05;114857;1198;22668;-81
2021/10/02 08:17:57;;;;;;;22.80;10.50;;;;;;;14.03;81.50;100432.98;114800;1192;22494;-79
2021/10/02 08:20:30;;;;;;;26.40;13.20;;;;;;;14.17;80.99;100429.88;114582;1193;22453;-79
2021/10/02 08:23:01;;;;;;;20.80;10.10;;;;;;;14.26;80.44;100430.66;114703;1198;24011;-81
2021/10/02 08:25:31;;;;;;;22.60;11.10;;;;;;;14.33;80.35;100427.58;114707;1198;25111;-78
2021/10/02 08:27:59;;;;;;;;;;;;;;;14.42;79.87;100426.16;114880;1198;22465;-80
2021/10/02 08:30:27;;;;;;;22.20;10.70;;;;;;;14.51;79.74;100426.86;114907;1198;22429;-79
2021/10/02 08:32:58;;;;;;;22.70;10.30;;;;;;;14.59;79.29;100425.53;114896;1198;22445;-78
2021/10/02 08:35:26;;;;;;;21.30;10.00;;;;;;;14.66;78.71;100431.95;114853;1198;25656;-80
2021/10/02 08:37:54;;;;;;;22.00;10.90;;;;;;;14.75;78.38;100428.55;114799;1198;22556;-82
2021/10/02 08:40:22;;;;;;;23.40;9.90;;;;;;;14.83;78.38;100427.19;114670;1176;22501;-81
2021/10/02 08:42:55;;;;;;;19.40;9.30;;;;;;;14.91;77.86;100417.89;115248;1198;22500;-82
2021/10/02 08:45:27;;;;;;;17.70;8.50;;;;;;;15.00;78.14;100422.88;114816;1200;25028;-82
2021/10/02 08:47:59;;;;;;;17.40;8.20;;;;;;;15.10;77.88;100424.95;115145;1198;22426;-82
2021/10/02 08:50:28;;;;;;;16.60;7.90;;;;;;;15.21;77.30;100420.19;114783;1198;25114;-82
2021/10/02 08:52:58;;;;;;;17.70;7.70;;;;;;;15.29;76.51;100422.11;114805;1199;24016;-81
2021/10/02 08:55:28;;;;;;;24.10;9.70;;;;;;;15.34;76.42;100416.34;115032;1184;25066;-82
2021/10/02 08:57:57;;;;;;;20.90;9.60;;;;;;;15.40;76.09;100415.54;115064;1192;22575;-82
2021/10/02 09:00:25;;;;;;;19.20;8.90;;;;;;;15.48;76.40;100419.27;115077;1198;22521;-82
2021/10/02 09:02:55;;;;;;;18.40;8.50;;;;;;;15.53;76.22;100422.44;114914;1193;22407;-83
2021/10/02 09:05:30;;;;;;;18.50;8.40;;;;;;;15.60;75.75;100420.11;114994;1197;22417;-82
2021/10/02 09:08:00;;;;;;;19.90;9.10;;;;;;;15.69;75.29;100423.03;114757;1197;22435;-81
2021/10/02 09:10:30;;;;;;;19.30;8.70;;;;;;;15.74;74.99;100423.70;114754;1199;22444;-81
2021/10/02 09:12:59;;;;;;;17.10;7.60;;;;;;;15.80;75.18;100420.28;114614;1198;22417;-80
2021/10/02 09:15:27;;;;;;;17.60;8.40;;;;;;;15.87;74.50;100417.31;114606;1199;23676;-79
2021/10/02 09:17:56;;;;;;;19.60;8.90;;;;;;;15.94;74.42;100420.54;114570;1198;25480;-81
2021/10/02 09:20:25;;;;;;;18.20;8.40;;;;;;;16.03;73.84;100419.21;114601;1199;22526;-81
2021/10/02 09:22:57;;;;;;;20.70;9.00;;;;;;;16.13;73.53;100417.05;114349;1199;22482;-81
2021/10/02 09:25:29;;;;;;;17.00;7.50;;;;;;;16.23;73.40;100420.77;114514;1199;22435;-80
2021/10/02 09:28:06;;;;;;;19.70;7.90;;;;;;;16.34;73.08;100419.73;114331;1199;22589;-81
2021/10/02 09:30:35;;;;;;;18.90;8.20;;;;;;;16.44;72.73;100421.63;113904;1199;22457;-81
2021/10/02 09:33:10;;;;;;;20.40;7.50;;;;;;;16.52;72.46;100418.66;113974;1198;24899;-81
2021/10/02 09:35:42;;;;;;;17.20;7.60;;;;;;;16.63;72.17;100420.64;113923;1200;23980;-80
2021/10/02 09:38:13;;;;;;;16.70;7.90;;;;;;;16.70;71.93;100420.20;114457;1192;22910;-81
2021/10/02 09:40:50;;;;;;;20.50;7.60;;;;;;;16.70;71.72;100419.99;114362;1199;22588;-80
2021/10/02 09:43:19;;;;;;;19.10;7.30;;;;;;;16.75;71.16;100419.36;114217;1200;22457;-81
2021/10/02 09:45:50;;;;;;;15.80;7.60;;;;;;;16.82;71.05;100415.85;114610;1199;22619;-81
2021/10/02 09:48:27;;;;;;;20.30;8.10;;;;;;;16.92;71.14;100413.10;114611;1198;22550;-81
2021/10/02 09:51:04;;;;;;;16.40;6.50;;;;;;;17.00;71.00;100413.07;114416;1199;22438;-81
2021/10/02 09:53:39;;;;;;;16.50;7.40;;;;;;;17.09;70.94;100414.31;114655;1192;22507;-82
2021/10/02 09:56:28;;;;;;;14.80;6.60;;;;;;;17.26;70.48;100415.61;114524;1198;22418;-81
2021/10/02 09:58:58;;;;;;;16.30;6.90;;;;;;;17.41;70.18;100411.46;114694;1198;24149;-81
2021/10/02 10:01:27;;;;;;;14.30;6.90;;;;;;;17.55;69.62;100416.08;114494;1196;22958;-82
2021/10/02 10:03:55;;;;;;;18.70;7.30;;;;;;;17.70;68.69;100416.95;114572;1199;22468;-82
2021/10/02 10:06:27;;;;;;;14.60;7.00;;;;;;;17.77;68.37;100419.94;114470;1193;22559;-81
2021/10/02 10:09:07;;;;;;;15.60;7.30;;;;;;;17.84;67.79;100420.45;114268;1198;22467;-79
2021/10/02 10:11:44;;;;;;;15.90;6.30;;;;;;;17.87;67.56;100412.97;114351;1198;24538;-79
2021/10/02 10:14:20;;;;;;;15.40;7.10;;;;;;;17.91;67.46;100412.59;114098;1200;22441;-77
2021/10/02 10:16:49;;;;;;;16.60;7.10;;;;;;;17.92;67.18;100410.45;114335;1199;22466;-78
2021/10/02 10:19:19;;;;;;;15.20;7.40;;;;;;;17.92;67.26;100410.61;114528;1198;22673;-78
2021/10/02 10:22:08;;;;;;;15.30;6.90;;;;;;;17.92;67.37;100405.45;114555;1199;22601;-77
2021/10/02 10:24:39;;;;;;;18.00;7.60;;;;;;;17.92;66.82;100404.15;114174;1194;25163;-78
2021/10/02 10:27:08;;;;;;;15.70;6.50;;;;;;;17.95;66.96;100407.52;114236;1199;22437;-78
2021/10/02 10:29:40;;;;;;;17.50;7.50;;;;;;;18.00;66.86;100406.14;114576;1199;22496;-81
2021/10/02 10:32:09;;;;;;;15.40;6.60;;;;;;;18.06;66.79;100404.55;115131;1198;22456;-82
2021/10/02 10:34:39;;;;;;;15.00;6.80;;;;;;;18.12;66.38;100402.27;115218;1192;22423;-81
2021/10/02 10:37:09;;;;;;;15.90;6.80;;;;;;;18.16;65.96;100399.77;114682;1192;22446;-80
2021/10/02 10:39:37;;;;;;;16.60;6.90;;;;;;;18.21;65.94;100397.62;115837;1199;22422;-81
2021/10/02 10:42:07;;;;;;;17.10;6.80;;;;;;;18.24;65.49;100399.95;116135;1193;22431;-81
2021/10/02 10:44:36;;;;;;;15.50;6.70;;;;;;;18.26;65.41;100399.06;115734;1193;24200;-79
2021/10/02 10:47:07;;;;;;;14.90;6.40;;;;;;;18.27;65.38;100397.48;115814;1193;22439;-82
2021/10/02 10:49:36;;;;;;;13.80;6.30;;;;;;;18.26;65.04;100393.98;115886;1198;22460;-80
2021/10/02 10:52:11;;;;;;;16.00;7.00;;;;;;;18.26;64.88;100387.50;115642;1198;22503;-83
2021/10/02 10:54:45;;;;;;;15.90;6.30;;;;;;;18.25;64.71;100384.27;116006;1199;22621;-79
2021/10/02 10:57:35;;;;;;;16.80;6.30;;;;;;;18.26;64.54;100375.90;115724;1199;22608;-80
2021/10/02 11:00:09;;;;;;;16.20;7.00;;;;;;;18.30;64.23;100376.94;115953;1198;22538;-79
2021/10/02 11:02:54;;;;;;;14.80;6.60;;;;;;;18.34;64.32;100373.60;116200;1199;22926;-81
2021/10/02 11:05:50;;;;;;;14.30;6.30;;;;;;;18.40;64.07;100368.55;115724;1198;22495;-81
2021/10/02 11:08:21;;;;;;;11.10;5.00;;;;;;;18.45;63.86;100371.25;115686;1194;22867;-81
2021/10/02 11:10:52;;;;;;;13.70;5.10;;;;;;;18.49;63.67;100361.95;115643;1199;22519;-82
2021/10/02 11:13:45;;;;;;;14.20;7.10;;;;;;;18.49;63.29;100356.80;115751;1194;22951;-82
2021/10/02 11:16:32;;;;;;;17.70;6.90;;;;;;;18.54;63.37;100362.36;115533;1198;22559;-82
2021/10/02 11:19:00;;;;;;;15.20;6.40;;;;;;;18.59;63.16;100361.08;115977;1198;23818;-83
2021/10/02 11:21:30;;;;;;;14.00;6.50;;;;;;;18.61;62.90;100361.09;115933;1198;23044;-84
2021/10/02 11:24:11;;;;;;;16.60;6.40;;;;;;;18.61;62.29;100358.89;115944;1192;23819;-84
2021/10/02 11:27:10;;;;;;;15.00;6.10;;;;;;;18.60;62.34;100354.63;115611;1199;22510;-85
2021/10/02 11:29:41;;;;;;;13.10;5.90;;;;;;;18.62;62.24;100358.77;115806;1187;22453;-89
2021/10/02 11:32:32;;;;;;;15.00;6.80;;;;;;;18.63;62.04;100359.94;116100;1199;23167;-86
2021/10/02 11:35:21;;;;;;;17.00;6.40;;;;;;;18.68;62.06;100361.88;115594;1198;23307;-82
2021/10/02 11:37:53;;;;;;;14.10;5.80;;;;;;;18.73;62.12;100361.16;117142;1198;22346;-83
2021/10/02 11:40:51;;;;;;;15.40;7.30;;;;;;;18.77;61.94;100361.46;116844;1199;22484;-85
2021/10/02 11:43:23;;;;;;;12.90;5.90;;;;;;;18.81;61.57;100365.53;116787;1198;23242;-83
2021/10/02 11:46:06;;;;;;;13.30;5.30;;;;;;;18.84;61.49;100367.80;114583;1198;24001;-80
2021/10/02 11:48:41;;;;;;;13.30;5.50;;;;;;;18.87;61.15;100361.50;114448;1199;23286;-82
2021/10/02 11:51:28;;;;;;;13.70;5.30;;;;;;;18.88;61.31;100356.44;114462;1200;22456;-81
2021/10/02 11:54:11;;;;;;;15.10;6.00;;;;;;;18.88;60.90;100357.00;114442;1198;26386;-81
2021/10/02 11:56:41;;;;;;;13.90;5.30;;;;;;;18.90;60.87;100359.39;114346;1200;24084;-82
2021/10/02 11:59:10;;;;;;;15.00;6.90;;;;;;;18.91;60.93;100359.85;114402;1199;22447;-80
2021/10/02 12:01:41;;;;;;;14.00;5.50;;;;;;;18.94;60.61;100353.38;114767;1198;22430;-82
2021/10/02 12:04:13;;;;;;;13.80;5.50;;;;;;;18.95;60.50;100352.59;114938;1199;23011;-81
2021/10/02 12:06:44;;;;;;;11.90;5.10;;;;;;;18.97;60.33;100349.27;114591;1198;22415;-79
2021/10/02 12:09:15;;;;;;;13.40;5.60;;;;;;;18.99;60.07;100354.19;113836;1200;22443;-78
2021/10/02 12:11:46;;;;;;;11.50;5.20;;;;;;;19.01;60.11;100350.36;114019;1198;22423;-78
2021/10/02 12:14:17;;;;;;;13.20;4.70;;;;;;;19.01;59.69;100352.82;113821;1200;22447;-81
2021/10/02 12:16:50;;;;;;;13.80;5.60;;;;;;;19.04;59.80;100352.32;114543;1198;22417;-78